Time;durP1;ratioP1;P1;durP2;ratioP2;P2;SDS_P1;SDS_P2;PMS_P1;PMS_P2;Temp;Humidity;BMP_temperature;BMP_pressure;BME280_temperature;BME280_humidity;BME280_pressure;Samples;Min_cycle;Max_cycle;Signal;HPM_P1;HPM_P2
2023/02/18 00:00:12;;;;;;;45.20;13.50;;;;;;;7.87;100.00;102316.97;5073953;28;20372;-78
2023/02/18 00:02:37;;;;;;;41.17;14.63;;;;;;;7.85;100.00;102311.75;5074146;28;20044;-77
2023/02/18 00:05:02;;;;;;;45.50;15.02;;;;;;;7.86;100.00;102309.97;5073973;28;20116;-77
2023/02/18 00:07:32;;;;;;;47.00;15.15;;;;;;;7.86;100.00;102309.97;5074459;28;20036;-78
2023/02/18 00:09:57;;;;;;;45.33;15.52;;;;;;;7.84;100.00;102301.25;5073555;28;20032;-78
2023/02/18 00:12:23;;;;;;;50.25;17.10;;;;;;;7.84;100.00;102309.19;5074062;28;20244;-78
2023/02/18 00:14:48;;;;;;;49.95;17.45;;;;;;;7.80;100.00;102312.94;5074028;28;20063;-77
2023/02/18 00:17:13;;;;;;;47.33;16.65;;;;;;;7.81;100.00;102309.34;5073306;28;20408;-78
2023/02/18 00:19:39;;;;;;;46.13;17.60;;;;;;;7.76;100.00;102296.34;5074082;28;20065;-78
2023/02/18 00:22:04;;;;;;;44.88;16.90;;;;;;;7.76;100.00;102306.94;5073116;28;20083;-78
2023/02/18 00:24:29;;;;;;;46.97;17.05;;;;;;;7.74;100.00;102298.25;5073763;28;20039;-77
2023/02/18 00:26:55;;;;;;;44.28;15.95;;;;;;;7.72;100.00;102284.25;5055768;28;20497;-78
2023/02/18 00:29:20;;;;;;;45.78;17.60;;;;;;;7.69;100.00;102282.59;5073602;28;20071;-78
2023/02/18 00:31:46;;;;;;;43.33;16.27;;;;;;;7.68;100.00;102291.47;5073325;28;20064;-77
2023/02/18 00:34:12;;;;;;;42.45;17.05;;;;;;;7.67;100.00;102294.22;5073113;28;20082;-78
2023/02/18 00:36:38;;;;;;;47.55;17.33;;;;;;;7.66;100.00;102292.50;5073571;28;20039;-77
2023/02/18 00:39:05;;;;;;;41.60;16.23;;;;;;;7.67;100.00;102283.63;5073254;28;20150;-78
2023/02/18 00:41:32;;;;;;;43.53;17.30;;;;;;;7.68;100.00;102287.97;5073545;28;20028;-78
2023/02/18 00:43:58;;;;;;;52.25;18.02;;;;;;;7.68;100.00;102280.03;5073463;28;20028;-78
2023/02/18 00:46:25;;;;;;;52.00;17.50;;;;;;;7.67;100.00;102283.63;5073993;28;20094;-78
2023/02/18 00:48:51;;;;;;;48.90;18.50;;;;;;;7.68;100.00;102272.94;5073638;28;20021;-78
2023/02/18 00:51:16;;;;;;;55.10;19.00;;;;;;;7.70;100.00;102272.84;5072698;28;20098;-78
2023/02/18 00:53:42;;;;;;;44.63;18.08;;;;;;;7.69;100.00;102268.50;5073201;28;20036;-78
2023/02/18 00:56:08;;;;;;;48.10;18.05;;;;;;;7.68;100.00;102270.28;5073200;28;20085;-78
2023/02/18 00:58:34;;;;;;;49.47;19.20;;;;;;;7.70;100.00;102278.16;5073137;28;20033;-78
2023/02/18 01:01:00;;;;;;;45.95;17.67;;;;;;;7.70;100.00;102271.06;5072740;28;20039;-78
2023/02/18 01:03:26;;;;;;;44.28;18.65;;;;;;;7.71;100.00;102271.91;5073099;28;20033;-78
2023/02/18 01:05:52;;;;;;;53.40;18.80;;;;;;;7.71;100.00;102266.63;5073285;28;20036;-78
2023/02/18 01:08:19;;;;;;;45.53;18.45;;;;;;;7.77;100.00;102272.41;5072605;28;20032;-78
2023/02/18 01:10:46;;;;;;;43.67;17.77;;;;;;;7.73;100.00;102260.31;5072601;28;20044;-78
2023/02/18 01:13:13;;;;;;;44.75;18.73;;;;;;;7.77;100.00;102256.50;5054554;28;20496;-79
2023/02/18 01:15:40;;;;;;;48.25;18.08;;;;;;;7.80;100.00;102262.59;5072948;28;20028;-78
2023/02/18 01:18:06;;;;;;;38.45;16.58;;;;;;;7.81;100.00;102254.56;5072542;28;20039;-78
2023/02/18 01:20:33;;;;;;;40.00;16.52;;;;;;;7.80;100.00;102244.06;5072888;28;20413;-78
2023/02/18 01:22:58;;;;;;;45.35;16.85;;;;;;;7.82;100.00;102242.16;5072575;28;20064;-78
2023/02/18 01:25:23;;;;;;;50.85;16.67;;;;;;;7.80;100.00;102244.06;5054431;28;20432;-78
2023/02/18 01:27:49;;;;;;;41.10;15.80;;;;;;;7.81;100.00;102248.41;5038163;28;20032;-78
2023/02/18 01:30:16;;;;;;;44.33;16.10;;;;;;;7.80;100.00;102242.25;5071868;28;20083;-78
2023/02/18 01:32:43;;;;;;;38.45;15.65;;;;;;;7.80;100.00;102252.00;5072924;28;20362;-78
2023/02/18 01:35:14;;;;;;;34.78;16.15;;;;;;;7.80;100.00;102246.72;5072370;28;20032;-78
2023/02/18 01:37:39;;;;;;;37.70;14.60;;;;;;;7.80;100.00;102250.19;5073146;28;20074;-78
2023/02/18 01:40:07;;;;;;;39.60;16.08;;;;;;;7.80;100.00;102236.09;5072442;28;20315;-78
2023/02/18 01:42:32;;;;;;;36.25;15.32;;;;;;;7.81;100.00;102230.72;5071545;28;20025;-78
2023/02/18 01:45:32;;;;;;;34.22;15.68;;;;;;;7.84;100.00;102224.41;5054610;28;20384;-78
2023/02/18 01:47:59;;;;;;;38.22;14.95;;;;;;;7.84;100.00;102221.75;5072779;28;20032;-78
2023/02/18 01:50:26;;;;;;;34.70;14.80;;;;;;;7.84;100.00;102214.66;5071993;28;20033;-78
2023/02/18 01:52:51;;;;;;;36.95;15.23;;;;;;;7.85;100.00;102212.84;5072650;28;20115;-78
2023/02/18 01:55:17;;;;;;;39.20;16.27;;;;;;;7.86;100.00;102223.34;5053979;28;20052;-78
2023/02/18 01:57:42;;;;;;;40.22;15.52;;;;;;;7.84;100.00;102217.28;5072234;28;20491;-77
2023/02/18 02:00:12;;;;;;;41.00;15.63;;;;;;;7.88;100.00;102215.31;5072279;28;20532;-79
2023/02/18 02:02:41;;;;;;;38.92;16.38;;;;;;;7.93;100.00;102205.31;5072011;28;20098;-77
2023/02/18 02:05:07;;;;;;;33.85;14.95;;;;;;;7.93;100.00;102200.00;5071763;28;20031;-78
2023/02/18 02:07:32;;;;;;;42.95;16.15;;;;;;;7.95;100.00;102180.41;5072280;28;20032;-78
2023/02/18 02:09:58;;;;;;;39.15;15.48;;;;;;;7.98;100.00;102179.38;5072025;28;20063;-78
2023/02/18 02:12:43;;;;;;;42.40;16.05;;;;;;;7.97;100.00;102180.31;5071817;28;20037;-78
2023/02/18 02:15:09;;;;;;;34.85;15.20;;;;;;;7.98;100.00;102170.59;5053953;28;20047;-79
2023/02/18 02:17:40;;;;;;;42.55;15.77;;;;;;;7.98;100.00;102176.72;5072480;28;20427;-78
2023/02/18 02:20:44;;;;;;;47.33;16.90;;;;;;;7.98;100.00;102168.78;5072232;28;20082;-78
2023/02/18 02:23:18;;;;;;;40.13;16.45;;;;;;;7.98;100.00;102162.63;5071703;28;20029;-78
2023/02/18 02:26:25;;;;;;;44.08;16.27;;;;;;;7.98;100.00;102157.34;5072061;28;20029;-78
2023/02/18 02:29:28;;;;;;;42.58;16.25;;;;;;;7.94;100.00;102143.41;5048007;28;20045;-78
2023/02/18 02:32:02;;;;;;;38.10;15.93;;;;;;;7.94;100.00;102138.09;5072124;28;20067;-78
2023/02/18 02:34:30;;;;;;;34.53;14.43;;;;;;;7.98;100.00;102125.53;5071767;28;20025;-78
2023/02/18 02:37:01;;;;;;;37.85;14.57;;;;;;;7.97;100.00;102118.50;5072116;28;20025;-78
2023/02/18 02:40:02;;;;;;;38.17;15.10;;;;;;;8.00;100.00;102110.38;5071660;28;20507;-79
2023/02/18 02:42:40;;;;;;;38.42;14.57;;;;;;;8.00;100.00;102105.94;5071708;28;20037;-78
2023/02/18 02:45:16;;;;;;;31.17;14.10;;;;;;;8.02;100.00;102105.84;5071899;28;20029;-79
2023/02/18 02:47:42;;;;;;;30.17;13.20;;;;;;;7.99;100.00;102088.34;5072063;28;20061;-79
2023/02/18 02:50:32;;;;;;;29.83;13.88;;;;;;;7.97;100.00;102092.84;5072035;28;20115;-79
2023/02/18 02:53:04;;;;;;;27.87;12.93;;;;;;;8.00;100.00;102095.34;5072188;28;20390;-79
2023/02/18 02:55:30;;;;;;;27.88;11.98;;;;;;;8.00;100.00;102094.47;5074921;28;20054;-78
2023/02/18 02:57:55;;;;;;;31.10;13.50;;;;;;;7.96;100.00;102083.22;5075539;28;20024;-79
2023/02/18 03:00:56;;;;;;;27.60;12.35;;;;;;;7.97;100.00;102087.56;5075161;28;20123;-79
2023/02/18 03:03:55;;;;;;;28.00;11.85;;;;;;;7.95;100.00;102094.75;5075172;28;20025;-78
2023/02/18 03:06:23;;;;;;;25.13;12.25;;;;;;;7.93;100.00;102080.75;5075613;28;20021;-79
2023/02/18 03:09:36;;;;;;;25.83;11.77;;;;;;;7.89;100.00;102080.06;5075377;28;20032;-78
2023/02/18 03:12:28;;;;;;;22.83;11.10;;;;;;;7.90;100.00;102080.94;5069454;28;20488;-79
2023/02/18 03:15:00;;;;;;;23.00;10.90;;;;;;;7.90;100.00;102067.69;5067067;28;20048;-79
2023/02/18 03:17:36;;;;;;;;;;;;;;;7.92;100.00;102068.44;5075733;28;20087;-79
2023/02/18 03:20:09;;;;;;;22.27;9.18;;;;;;;7.93;100.00;102062.19;5075453;28;19963;-80
2023/02/18 03:22:46;;;;;;;20.83;8.88;;;;;;;7.91;100.00;102049.03;5074870;28;20123;-80
2023/02/18 03:25:13;;;;;;;25.95;8.93;;;;;;;7.92;100.00;102041.94;5075281;28;20477;-80
2023/02/18 03:28:00;;;;;;;21.42;8.70;;;;;;;7.91;100.00;102038.44;5074419;28;20032;-82
2023/02/18 03:30:37;;;;;;;20.45;8.45;;;;;;;7.92;100.00;102041.94;5074522;28;20055;-80
2023/02/18 03:33:05;;;;;;;23.70;9.32;;;;;;;7.90;100.00;102035.88;5075141;28;20025;-79
2023/02/18 03:35:30;;;;;;;19.02;8.52;;;;;;;7.89;100.00;102035.00;5074305;28;20031;-80
2023/02/18 03:38:29;;;;;;;23.85;9.55;;;;;;;7.87;100.00;102028.13;5074918;28;20036;-80
2023/02/18 03:40:55;;;;;;;24.02;8.82;;;;;;;7.86;100.00;102034.34;5074856;28;20037;-80
2023/02/18 03:43:20;;;;;;;24.20;9.80;;;;;;;7.82;100.00;102020.41;5073967;28;20036;-80
2023/02/18 03:45:45;;;;;;;22.27;10.07;;;;;;;7.83;100.00;102016.84;5056918;28;20056;-80
2023/02/18 03:48:11;;;;;;;19.88;9.57;;;;;;;7.83;100.00;102021.28;5075168;28;20118;-81
2023/02/18 03:50:36;;;;;;;25.40;11.00;;;;;;;7.83;100.00;102016.00;5074154;28;20107;-82
2023/02/18 03:53:01;;;;;;;19.80;10.27;;;;;;;7.79;100.00;102023.25;5074912;28;20033;-80
2023/02/18 03:55:27;;;;;;;26.05;11.73;;;;;;;7.78;100.00;102024.22;5074663;28;20115;-80
2023/02/18 03:57:52;;;;;;;30.00;12.07;;;;;;;7.77;100.00;102019.84;5056691;28;20037;-80
2023/02/18 04:00:19;;;;;;;31.45;11.38;;;;;;;7.78;100.00;102016.28;5074468;28;20044;-80
2023/02/18 04:02:45;;;;;;;36.13;12.55;;;;;;;7.75;100.00;102022.59;5073984;28;20049;-80
2023/02/18 04:05:10;;;;;;;37.13;13.48;;;;;;;7.76;100.00;102012.84;5073638;28;20028;-81
2023/02/18 04:07:36;;;;;;;36.42;13.48;;;;;;;7.75;100.00;102004.06;5056141;28;20464;-81
2023/02/18 04:10:02;;;;;;;42.00;15.38;;;;;;;7.79;100.00;101998.56;5056479;28;20048;-80
2023/02/18 04:12:28;;;;;;;34.97;13.43;;;;;;;7.83;100.00;102003.59;5074109;28;20103;-81
2023/02/18 04:14:53;;;;;;;35.53;13.38;;;;;;;7.85;100.00;102009.66;5074251;28;20132;-81
2023/02/18 04:17:18;;;;;;;29.35;12.70;;;;;;;7.94;100.00;101992.31;5074366;28;20430;-83
2023/02/18 04:19:44;;;;;;;33.83;12.90;;;;;;;7.95;100.00;101988.75;5073960;28;20028;-82
2023/02/18 04:22:09;;;;;;;32.33;12.30;;;;;;;7.93;100.00;101993.28;5056310;28;20486;-81
2023/02/18 04:24:35;;;;;;;35.38;12.43;;;;;;;7.93;100.00;101988.00;5073866;28;20028;-80
2023/02/18 04:27:00;;;;;;;36.88;12.38;;;;;;;7.93;100.00;101988.84;5074038;28;20025;-80
2023/02/18 04:29:25;;;;;;;34.17;12.38;;;;;;;7.93;100.00;101986.19;5073194;28;20102;-80
2023/02/18 04:31:51;;;;;;;32.72;12.02;;;;;;;7.93;100.00;101986.19;5073981;28;20128;-82
2023/02/18 04:34:16;;;;;;;32.95;12.20;;;;;;;7.97;100.00;101972.75;5074210;28;20032;-80
2023/02/18 04:36:42;;;;;;;29.45;11.63;;;;;;;7.98;100.00;101961.22;5073713;28;20085;-80
2023/02/18 04:39:07;;;;;;;28.20;11.10;;;;;;;8.02;100.00;101968.03;5074285;28;20123;-80
2023/02/18 04:41:32;;;;;;;35.95;11.70;;;;;;;8.00;100.00;101949.56;5073960;28;20028;-80
2023/02/18 04:43:58;;;;;;;34.13;12.70;;;;;;;7.98;100.00;101946.16;5073659;28;20029;-82
2023/02/18 04:46:24;;;;;;;33.60;11.25;;;;;;;7.96;100.00;101945.41;5073551;28;20555;-81
2023/02/18 04:48:49;;;;;;;26.25;11.18;;;;;;;7.99;100.00;101942.56;5073020;28;20033;-80
2023/02/18 04:51:14;;;;;;;27.40;10.93;;;;;;;7.98;100.00;101953.25;5073211;28;20078;-80
2023/02/18 04:53:40;;;;;;;31.63;11.07;;;;;;;7.99;100.00;101957.63;5072807;28;20075;-80
2023/02/18 04:56:05;;;;;;;25.65;10.15;;;;;;;7.98;100.00;101950.59;5073354;28;20075;-80
2023/02/18 04:58:30;;;;;;;25.90;10.82;;;;;;;7.94;100.00;101956.09;5072745;28;20497;-81
2023/02/18 05:01:03;;;;;;;27.40;10.75;;;;;;;7.95;100.00;101949.00;5073319;28;20150;-81
2023/02/18 05:03:29;;;;;;;24.77;10.85;;;;;;;7.96;100.00;101950.69;5072836;28;20473;-80
2023/02/18 05:05:55;;;;;;;24.25;10.07;;;;;;;7.94;100.00;101941.97;5073915;28;20117;-80
2023/02/18 05:08:20;;;;;;;27.67;10.43;;;;;;;7.96;100.00;101948.06;5073156;28;20056;-80
2023/02/18 05:10:46;;;;;;;25.63;9.55;;;;;;;7.98;100.00;101954.09;5074549;28;20029;-80
2023/02/18 05:13:11;;;;;;;25.75;9.88;;;;;;;7.98;100.00;101947.94;5073244;28;20031;-80
2023/02/18 05:15:37;;;;;;;26.10;10.70;;;;;;;8.00;100.00;101946.03;5072284;28;20116;-81
2023/02/18 05:18:02;;;;;;;25.70;10.32;;;;;;;8.00;100.00;101933.66;5072133;28;20116;-80
2023/02/18 05:20:28;;;;;;;22.67;9.75;;;;;;;7.98;100.00;101927.59;5072913;28;20395;-81
2023/02/18 05:22:53;;;;;;;26.15;9.32;;;;;;;8.00;100.00;101930.16;5072512;28;20033;-79
2023/02/18 05:25:19;;;;;;;24.90;8.98;;;;;;;8.00;100.00;101936.31;5054888;28;20086;-79
2023/02/18 05:27:44;;;;;;;23.45;9.27;;;;;;;8.03;100.00;101928.19;5072462;28;20035;-79
2023/02/18 05:30:10;;;;;;;20.17;9.35;;;;;;;8.07;100.00;101934.97;5072773;28;20060;-80
2023/02/18 05:32:35;;;;;;;24.80;9.45;;;;;;;8.10;100.00;101916.22;5072491;28;20036;-80
2023/02/18 05:35:01;;;;;;;23.45;9.13;;;;;;;8.10;100.00;101921.50;5072769;28;20028;-80
2023/02/18 05:37:26;;;;;;;23.67;9.98;;;;;;;8.11;100.00;101919.75;5072910;28;20024;-80
2023/02/18 05:39:51;;;;;;;23.77;9.40;;;;;;;8.08;100.00;101922.59;5072215;28;20067;-79
2023/02/18 05:42:17;;;;;;;24.23;9.40;;;;;;;8.07;100.00;101903.16;5055016;28;20033;-79
2023/02/18 05:44:42;;;;;;;24.80;9.60;;;;;;;8.08;100.00;101920.78;5072129;28;20086;-78
2023/02/18 05:47:11;;;;;;;23.55;9.35;;;;;;;8.08;100.00;101910.16;5072549;28;20078;-79
2023/02/18 05:49:38;;;;;;;28.83;10.52;;;;;;;8.05;100.00;101914.81;5054182;28;20354;-79
2023/02/18 05:52:04;;;;;;;26.00;9.38;;;;;;;8.06;100.00;101913.84;5073702;28;20041;-78
2023/02/18 05:54:29;;;;;;;25.63;9.60;;;;;;;8.07;100.00;101913.75;5073138;28;20378;-78
2023/02/18 05:56:55;;;;;;;27.10;9.15;;;;;;;8.06;100.00;101909.44;5073159;28;20218;-78
2023/02/18 05:59:21;;;;;;;25.25;9.15;;;;;;;8.05;100.00;101910.38;5074319;28;20064;-79
2023/02/18 06:01:49;;;;;;;28.20;10.23;;;;;;;8.03;100.00;101906.09;5073450;28;20415;-77
2023/02/18 06:04:14;;;;;;;34.75;10.95;;;;;;;7.99;100.00;101899.31;5072740;28;20025;-79
2023/02/18 06:06:41;;;;;;;23.67;9.55;;;;;;;7.94;100.00;101900.44;5072005;28;20033;-79
2023/02/18 06:09:07;;;;;;;37.90;10.15;;;;;;;7.94;100.00;101911.03;5072182;28;20029;-79
2023/02/18 06:11:33;;;;;;;30.52;9.20;;;;;;;7.97;100.00;101903.84;5072520;28;20112;-79
2023/02/18 06:13:59;;;;;;;34.35;9.80;;;;;;;7.98;100.00;101926.75;5072028;28;20109;-79
2023/02/18 06:16:25;;;;;;;30.15;8.80;;;;;;;8.00;100.00;101920.41;5054552;28;20423;-79
2023/02/18 06:18:50;;;;;;;29.83;9.18;;;;;;;8.05;100.00;101912.19;5072007;28;20105;-78
2023/02/18 06:21:16;;;;;;;25.88;8.32;;;;;;;8.04;100.00;101894.56;5072347;28;20060;-78
2023/02/18 06:23:41;;;;;;;26.27;6.85;;;;;;;8.07;100.00;101897.84;5071903;28;20044;-80
2023/02/18 06:26:07;;;;;;;28.17;7.15;;;;;;;8.10;100.00;101913.56;5072150;28;20066;-79
2023/02/18 06:28:32;;;;;;;29.92;7.97;;;;;;;8.10;100.00;101921.50;5073516;28;20024;-79
2023/02/18 06:30:58;;;;;;;26.30;7.63;;;;;;;8.10;100.00;101918.03;5075460;28;20381;-79
2023/02/18 06:33:23;;;;;;;23.33;7.35;;;;;;;8.10;100.00;101902.97;5076044;28;20048;-79
2023/02/18 06:36:00;;;;;;;24.95;8.02;;;;;;;8.12;100.00;101916.13;5075627;28;20101;-78
2023/02/18 06:38:25;;;;;;;26.10;6.78;;;;;;;8.15;100.00;101908.00;5076111;28;20035;-78
2023/02/18 06:40:51;;;;;;;32.85;8.23;;;;;;;8.17;100.00;101915.84;5075327;28;20373;-78
2023/02/18 06:43:17;;;;;;;28.27;7.20;;;;;;;8.17;100.00;101918.50;5075825;28;20035;-78
2023/02/18 06:45:43;;;;;;;29.33;7.28;;;;;;;8.13;100.00;101907.22;5057303;28;20033;-79
2023/02/18 06:48:09;;;;;;;31.88;6.55;;;;;;;8.08;100.00;101907.53;5075562;28;20032;-78
2023/02/18 06:50:35;;;;;;;22.83;5.47;;;;;;;8.08;100.00;101906.69;5075705;28;20048;-78
2023/02/18 06:53:00;;;;;;;19.05;5.80;;;;;;;8.07;100.00;101904.97;5075126;28;20392;-78
2023/02/18 06:55:25;;;;;;;26.58;4.97;;;;;;;8.07;100.00;101907.63;5075657;28;20024;-77
2023/02/18 06:57:51;;;;;;;24.90;5.40;;;;;;;8.07;100.00;101899.66;5074852;28;20028;-79
2023/02/18 07:00:16;;;;;;;26.58;5.07;;;;;;;8.04;100.00;101900.69;5057391;28;20136;-78
2023/02/18 07:02:42;;;;;;;27.20;4.60;;;;;;;8.01;100.00;101898.25;5075537;28;20067;-77
2023/02/18 07:05:07;;;;;;;24.60;3.90;;;;;;;7.99;100.00;101900.16;5074887;28;20425;-78
2023/02/18 07:07:33;;;;;;;25.27;3.70;;;;;;;7.95;100.00;101899.47;5075216;28;20028;-78
2023/02/18 07:09:58;;;;;;;26.90;4.20;;;;;;;7.94;100.00;101905.75;5057152;28;20099;-78
2023/02/18 07:12:24;;;;;;;27.95;3.42;;;;;;;7.93;100.00;101893.44;5075596;28;20115;-77
2023/02/18 07:14:49;;;;;;;26.27;4.47;;;;;;;7.94;100.00;101902.22;5074941;28;20453;-78
2023/02/18 07:17:15;;;;;;;25.95;4.85;;;;;;;7.91;100.00;101876.78;5075157;28;20028;-78
2023/02/18 07:19:40;;;;;;;22.17;4.07;;;;;;;7.90;100.00;101879.53;5075125;28;20370;-78
2023/02/18 07:22:06;;;;;;;25.40;4.07;;;;;;;7.90;100.00;101887.47;5074360;28;20644;-79
2023/02/18 07:24:31;;;;;;;28.23;4.00;;;;;;;7.88;100.00;101887.59;5057167;28;20039;-79
2023/02/18 07:26:57;;;;;;;22.80;3.63;;;;;;;7.91;100.00;101889.16;5074760;28;20119;-80
2023/02/18 07:29:22;;;;;;;24.20;4.03;;;;;;;7.92;100.00;101882.94;5075112;28;20412;-80
2023/02/18 07:31:48;;;;;;;33.13;4.50;;;;;;;7.92;100.00;101889.06;5074595;28;20450;-79
2023/02/18 07:34:13;;;;;;;22.85;3.53;;;;;;;7.92;100.00;101889.06;5074999;28;20096;-79
2023/02/18 07:36:38;;;;;;;25.20;3.92;;;;;;;7.90;100.00;101884.84;5056780;28;20473;-80
2023/02/18 07:39:04;;;;;;;34.05;4.68;;;;;;;7.88;100.00;101902.59;5056505;28;20041;-78
2023/02/18 07:41:29;;;;;;;33.78;4.00;;;;;;;7.91;100.00;101874.13;5073937;28;20037;-79
2023/02/18 07:43:54;;;;;;;28.38;4.00;;;;;;;7.91;100.00;101897.13;5074142;28;20032;-81
2023/02/18 07:46:20;;;;;;;30.45;4.55;;;;;;;7.88;100.00;101899.97;5074783;28;20067;-80
2023/02/18 07:48:45;;;;;;;25.95;3.95;;;;;;;7.83;100.00;101886.16;5074471;28;20040;-79
2023/02/18 07:51:12;;;;;;;23.40;3.65;;;;;;;7.80;100.00;101889.84;5074502;28;20029;-80
2023/02/18 07:53:38;;;;;;;35.40;5.47;;;;;;;7.81;100.00;101902.16;5074894;28;20079;-81
2023/02/18 07:56:04;;;;;;;27.45;3.55;;;;;;;7.84;100.00;101886.06;5074328;28;20036;-81
2023/02/18 07:58:33;;;;;;;23.75;4.40;;;;;;;7.90;100.00;101884.84;5074758;28;20038;-80
2023/02/18 08:01:03;;;;;;;28.20;3.78;;;;;;;7.92;100.00;101883.78;5074273;28;20020;-84
2023/02/18 08:03:30;;;;;;;24.92;4.10;;;;;;;7.97;100.00;101890.59;5075470;28;20030;-76
2023/02/18 08:05:57;;;;;;;27.88;3.95;;;;;;;7.99;100.00;101894.84;5073502;28;20430;-79
2023/02/18 08:08:25;;;;;;;21.05;3.70;;;;;;;8.03;100.00;101901.66;5074250;28;20067;-78
2023/02/18 08:10:53;;;;;;;29.50;4.13;;;;;;;8.02;100.00;101899.97;5074445;28;20055;-78
2023/02/18 08:13:18;;;;;;;24.35;3.75;;;;;;;8.00;100.00;101899.22;5074167;28;20107;-78
2023/02/18 08:15:44;;;;;;;23.10;4.13;;;;;;;7.99;100.00;101901.97;5074336;28;20116;-81
2023/02/18 08:18:20;;;;;;;23.23;3.95;;;;;;;7.90;100.00;101883.03;5073711;28;20522;-79
2023/02/18 08:20:47;;;;;;;27.67;4.40;;;;;;;7.84;100.00;101874.63;5074090;28;20449;-78
2023/02/18 08:23:14;;;;;;;26.27;4.18;;;;;;;7.82;100.00;101898.53;5073369;28;20032;-78
2023/02/18 08:25:39;;;;;;;27.20;3.83;;;;;;;7.80;100.00;101892.50;5074214;28;20047;-81
2023/02/18 08:28:05;;;;;;;28.35;4.32;;;;;;;7.79;100.00;101890.78;5073575;28;20024;-80
2023/02/18 08:30:31;;;;;;;20.23;3.53;;;;;;;7.82;100.00;101897.69;5073354;28;20385;-78
2023/02/18 08:32:56;;;;;;;30.08;3.88;;;;;;;7.84;100.00;101883.41;5073202;28;20044;-77
2023/02/18 08:35:22;;;;;;;31.52;4.75;;;;;;;7.91;100.00;101881.22;5073730;28;20037;-78
2023/02/18 08:37:48;;;;;;;27.27;4.40;;;;;;;7.98;100.00;101894.94;5073776;28;20075;-77
2023/02/18 08:40:13;;;;;;;19.80;3.50;;;;;;;8.02;100.00;101886.69;5073129;28;20077;-77
2023/02/18 08:42:39;;;;;;;24.17;3.50;;;;;;;8.06;100.00;101888.22;5073177;28;20384;-78
2023/02/18 08:45:05;;;;;;;35.92;5.88;;;;;;;8.10;100.00;101894.16;5067129;28;20037;-77
2023/02/18 08:47:31;;;;;;;27.92;3.50;;;;;;;8.12;100.00;101902.88;5050826;28;20033;-77
2023/02/18 08:49:56;;;;;;;24.15;3.50;;;;;;;8.17;100.00;101915.84;5050560;28;20544;-77
2023/02/18 08:52:22;;;;;;;25.63;4.40;;;;;;;8.23;100.00;101916.31;5049795;28;20090;-78
2023/02/18 08:54:47;;;;;;;28.30;3.88;;;;;;;8.28;100.00;101923.97;5050541;28;20033;-76
2023/02/18 08:57:13;;;;;;;32.90;4.47;;;;;;;8.29;100.00;101905.31;5049609;28;20033;-77
2023/02/18 08:59:38;;;;;;;24.65;3.80;;;;;;;8.30;100.00;101924.72;5050234;28;20033;-76
2023/02/18 09:02:04;;;;;;;21.48;3.85;;;;;;;8.28;100.00;101934.56;5050017;28;20033;-77
2023/02/18 09:04:29;;;;;;;28.50;3.97;;;;;;;8.21;100.00;101920.00;5050400;28;20161;-76
2023/02/18 09:06:55;;;;;;;36.05;5.00;;;;;;;8.25;100.00;101945.38;5050433;28;20124;-76
2023/02/18 09:09:20;;;;;;;25.40;4.68;;;;;;;8.26;100.00;101944.44;5031697;28;20474;-77
2023/02/18 09:11:45;;;;;;;26.50;4.18;;;;;;;8.35;100.00;101935.88;5050254;28;20029;-77
2023/02/18 09:14:11;;;;;;;25.83;3.85;;;;;;;8.39;100.00;101945.34;5049630;28;20033;-77
2023/02/18 09:16:38;;;;;;;27.42;3.92;;;;;;;8.41;100.00;101943.44;5050143;28;20420;-75
2023/02/18 09:19:03;;;;;;;27.45;3.75;;;;;;;8.44;100.00;101943.28;5049768;28;20025;-78
2023/02/18 09:21:29;;;;;;;26.70;4.32;;;;;;;8.44;100.00;101935.31;5049488;28;20087;-77
2023/02/18 09:23:55;;;;;;;22.42;3.65;;;;;;;8.48;100.00;101941.31;5049992;28;20040;-76
2023/02/18 09:26:25;;;;;;;28.67;4.00;;;;;;;8.50;100.00;101927.94;5049407;28;20033;-78
2023/02/18 09:28:52;;;;;;;28.70;3.90;;;;;;;8.52;100.00;101945.44;5049956;28;20529;-77
2023/02/18 09:31:21;;;;;;;29.08;3.60;;;;;;;8.58;100.00;101954.81;5049459;28;20501;-76
2023/02/18 09:33:49;;;;;;;32.47;3.50;;;;;;;8.64;100.00;101954.41;5049506;28;20040;-76
2023/02/18 09:36:15;;;;;;;23.50;3.85;;;;;;;8.75;100.00;101943.97;5049441;28;20051;-77
2023/02/18 09:38:41;;;;;;;26.55;3.95;;;;;;;8.83;100.00;101957.56;5049832;28;20025;-77
2023/02/18 09:41:23;;;;;;;26.23;4.45;;;;;;;8.83;100.00;101967.34;5049322;28;20047;-75
2023/02/18 09:43:52;;;;;;;21.88;3.55;;;;;;;8.87;100.00;101974.16;5049757;28;20158;-77
2023/02/18 09:46:24;;;;;;;24.15;3.95;;;;;;;8.85;100.00;101956.63;5049061;28;20021;-76
2023/02/18 09:48:51;;;;;;;36.03;4.65;;;;;;;8.81;100.00;101971.91;5052988;28;20039;-80
2023/02/18 09:51:18;;;;;;;23.75;3.08;;;;;;;8.80;100.00;101948.97;5064658;28;20036;-78
2023/02/18 09:53:44;;;;;;;18.13;3.35;;;;;;;8.87;100.00;101958.22;5062680;28;20429;-78
2023/02/18 09:56:16;;;;;;;25.10;3.67;;;;;;;8.94;100.00;101956.00;5071850;28;20456;-77
2023/02/18 09:58:43;;;;;;;27.13;5.13;;;;;;;8.98;100.00;101966.31;5071875;28;20040;-78
2023/02/18 10:01:29;;;;;;;19.45;3.15;;;;;;;8.98;100.00;101978.75;5071566;28;20125;-78
2023/02/18 10:04:00;;;;;;;25.23;3.95;;;;;;;8.93;100.00;101972.91;5074306;28;20163;-79
2023/02/18 10:06:29;;;;;;;20.52;3.70;;;;;;;8.89;100.00;101974.06;5058355;28;20115;-82
2023/02/18 10:08:59;;;;;;;24.45;4.72;;;;;;;8.89;100.00;101969.59;5076034;28;20496;-79
2023/02/18 10:11:28;;;;;;;31.48;4.63;;;;;;;8.98;100.00;101976.09;5075113;28;20115;-79
2023/02/18 10:13:55;;;;;;;22.17;3.22;;;;;;;9.02;100.00;101974.09;5076040;28;20039;-77
2023/02/18 10:16:22;;;;;;;26.92;3.67;;;;;;;8.99;100.00;101976.00;5074976;28;20033;-75
2023/02/18 10:18:52;;;;;;;24.85;4.25;;;;;;;9.00;100.00;101995.41;5075490;28;20158;-75
2023/02/18 10:21:31;;;;;;;16.30;3.25;;;;;;;9.09;100.00;102001.94;5056766;28;20032;-76
2023/02/18 10:24:04;;;;;;;25.80;3.63;;;;;;;9.08;100.00;102001.09;5075418;28;20028;-76
2023/02/18 10:26:33;;;;;;;27.50;3.67;;;;;;;9.04;100.00;101990.78;5075149;28;20457;-78
2023/02/18 10:28:59;;;;;;;18.27;3.67;;;;;;;9.09;100.00;101996.63;5074894;28;20032;-78
2023/02/18 10:31:30;;;;;;;23.88;3.67;;;;;;;9.21;100.00;102005.59;5040042;28;20392;-78
2023/02/18 10:34:37;;;;;;;23.13;3.83;;;;;;;9.14;100.00;101991.88;5075302;28;20033;-76
2023/02/18 10:37:39;;;;;;;35.42;4.85;;;;;;;9.16;100.00;101982.00;5075552;28;20074;-77
2023/02/18 10:40:16;;;;;;;24.35;4.20;;;;;;;9.24;100.00;101989.44;5057170;28;20182;-75
2023/02/18 10:42:52;;;;;;;28.08;3.65;;;;;;;9.25;100.00;101991.16;5075373;28;20063;-77
2023/02/18 10:45:42;;;;;;;16.58;2.72;;;;;;;9.22;100.00;102007.28;5074517;28;20036;-77
2023/02/18 10:48:31;;;;;;;24.88;4.15;;;;;;;9.29;100.00;101997.97;5076808;28;20033;-79
2023/02/18 10:51:00;;;;;;;14.75;3.75;;;;;;;9.31;100.00;101996.06;5075421;28;20069;-79
2023/02/18 10:53:39;;;;;;;19.80;2.88;;;;;;;9.33;100.00;101979.06;5075435;28;20048;-81
2023/02/18 10:56:06;;;;;;;18.73;3.13;;;;;;;9.31;100.00;101994.25;5075245;28;20037;-77
2023/02/18 10:58:40;;;;;;;18.63;3.80;;;;;;;9.30;100.00;101992.56;5074898;28;20033;-78
2023/02/18 11:01:13;;;;;;;23.98;3.92;;;;;;;9.30;100.00;101989.91;5057827;28;20028;-79
2023/02/18 11:03:45;;;;;;;21.77;3.45;;;;;;;9.35;100.00;102000.22;5075010;28;20060;-78
2023/02/18 11:06:16;;;;;;;21.90;3.45;;;;;;;9.36;100.00;101991.31;5075562;28;20115;-78
2023/02/18 11:08:44;;;;;;;;;;;;;;;9.42;100.00;102013.94;5076280;28;20056;-78
2023/02/18 11:11:16;;;;;;;28.38;3.83;;;;;;;9.53;100.00;102011.41;5075179;28;19993;-79
2023/02/18 11:13:42;;;;;;;26.73;4.05;;;;;;;9.60;100.00;102006.50;5075463;28;20178;-78
2023/02/18 11:16:09;;;;;;;14.65;2.70;;;;;;;9.80;100.00;102007.81;5058128;28;20040;-77
2023/02/18 11:18:37;;;;;;;16.55;3.40;;;;;;;9.86;100.00;102002.94;5076815;28;20070;-78
2023/02/18 11:21:17;;;;;;;13.07;3.13;;;;;;;9.81;100.00;102004.22;5076037;28;20033;-78